createdAt,value
2018-10-09T00:00:08.623Z,0.00
2018-10-09T00:01:08.599Z,0.00
2018-10-09T00:02:08.589Z,0.00
2018-10-09T00:03:08.592Z,0.00
2018-10-09T00:04:08.566Z,0.00
2018-10-09T00:05:08.565Z,0.00
2018-10-09T00:06:08.558Z,0.00
2018-10-09T00:07:08.573Z,0.00
2018-10-09T00:08:08.548Z,0.00
2018-10-09T00:09:08.524Z,0.00
2018-10-09T00:10:08.515Z,0.00
2018-10-09T00:11:08.509Z,0.00
2018-10-09T00:12:08.481Z,0.00
2018-10-09T00:13:08.500Z,0.00
2018-10-09T00:14:08.459Z,0.00
2018-10-09T00:15:08.453Z,0.00
2018-10-09T00:16:08.448Z,0.00
2018-10-09T00:17:08.428Z,0.00
2018-10-09T00:18:08.431Z,0.00
2018-10-09T00:19:08.405Z,0.00
2018-10-09T00:20:08.396Z,0.00
2018-10-09T00:21:08.392Z,0.00
2018-10-09T00:22:08.374Z,0.00
2018-10-09T00:23:08.376Z,0.00
2018-10-09T00:24:08.353Z,0.00
2018-10-09T00:25:08.399Z,0.00
2018-10-09T00:26:08.360Z,0.00
2018-10-09T00:27:08.333Z,0.00
2018-10-09T00:28:08.338Z,0.00
2018-10-09T00:29:08.327Z,0.00
2018-10-09T00:30:08.288Z,0.00
2018-10-09T00:31:08.278Z,0.00
2018-10-09T00:32:08.268Z,0.00
2018-10-09T00:33:08.271Z,0.00
2018-10-09T00:34:08.246Z,0.00
2018-10-09T00:35:08.247Z,0.00
2018-10-09T00:36:08.243Z,0.00
2018-10-09T00:37:08.217Z,0.00
2018-10-09T00:38:08.217Z,0.00
2018-10-09T00:39:08.192Z,0.00
2018-10-09T00:40:08.184Z,0.00
2018-10-09T00:41:08.168Z,0.00
2018-10-09T00:42:08.181Z,0.00
2018-10-09T00:43:08.165Z,0.00
2018-10-09T00:44:08.141Z,0.00
2018-10-09T00:45:08.127Z,0.00
2018-10-09T00:46:08.116Z,0.00
2018-10-09T00:47:08.105Z,0.00
2018-10-09T00:48:08.124Z,0.00
2018-10-09T00:49:08.085Z,0.00
2018-10-09T00:50:08.073Z,0.00
2018-10-09T00:51:08.066Z,0.00
2018-10-09T00:52:08.052Z,0.00
2018-10-09T00:53:08.055Z,0.00
2018-10-09T00:54:08.038Z,0.00
2018-10-09T00:55:08.037Z,0.00
2018-10-09T00:56:08.024Z,0.00
2018-10-09T00:57:08.033Z,0.00
2018-10-09T00:58:08.013Z,0.00
2018-10-09T00:59:07.985Z,0.00
2018-10-09T01:00:07.976Z,0.00
2018-10-09T01:01:07.968Z,0.00
2018-10-09T01:02:07.952Z,0.00
2018-10-09T01:03:07.976Z,0.00
2018-10-09T01:04:07.975Z,0.00
2018-10-09T01:05:07.921Z,0.00
2018-10-09T01:06:07.909Z,0.00
2018-10-09T01:07:07.916Z,0.00
2018-10-09T01:08:07.897Z,0.00
2018-10-09T01:09:07.911Z,0.00
2018-10-09T01:10:07.872Z,0.00
2018-10-09T01:11:07.862Z,0.00
2018-10-09T01:12:07.842Z,0.00
2018-10-09T01:13:07.854Z,0.00
2018-10-09T01:14:07.822Z,0.00
2018-10-09T01:15:07.833Z,0.00
2018-10-09T01:16:07.819Z,0.00
2018-10-09T01:17:07.783Z,0.00
2018-10-09T01:18:07.798Z,0.00
2018-10-09T01:19:07.768Z,0.00
2018-10-09T01:20:07.771Z,0.00
2018-10-09T01:21:07.738Z,0.00
2018-10-09T01:22:07.729Z,0.00
2018-10-09T01:23:07.749Z,0.00
2018-10-09T01:24:07.717Z,0.00
2018-10-09T01:25:07.705Z,0.00
2018-10-09T01:26:07.693Z,0.00
2018-10-09T01:27:07.694Z,0.00
2018-10-09T01:28:07.678Z,0.00
2018-10-09T01:29:07.655Z,0.00
2018-10-09T01:30:07.646Z,0.00
2018-10-09T01:31:07.636Z,0.00
2018-10-09T01:32:07.643Z,0.00
2018-10-09T01:33:07.625Z,0.00
2018-10-09T01:34:07.600Z,0.00
2018-10-09T01:35:07.589Z,0.00
2018-10-09T01:36:07.579Z,0.00
2018-10-09T01:37:07.570Z,0.00
2018-10-09T01:38:07.602Z,0.00
2018-10-09T01:39:07.549Z,0.00
2018-10-09T01:40:07.535Z,0.00
2018-10-09T01:41:07.527Z,0.00
2018-10-09T01:42:07.515Z,0.00
2018-10-09T01:43:07.517Z,0.00
2018-10-09T01:44:07.509Z,0.00
2018-10-09T01:45:07.494Z,0.00
2018-10-09T01:46:07.488Z,0.00
2018-10-09T01:47:07.476Z,0.00
2018-10-09T01:48:07.465Z,0.00
2018-10-09T01:49:07.440Z,0.00
2018-10-09T01:50:07.430Z,0.00
2018-10-09T01:51:07.419Z,0.00
2018-10-09T01:52:07.408Z,0.00
2018-10-09T01:53:07.417Z,0.00
2018-10-09T01:54:07.425Z,0.00
2018-10-09T01:55:07.383Z,0.00
2018-10-09T01:56:07.381Z,0.00
2018-10-09T01:57:07.355Z,0.00
2018-10-09T01:58:07.378Z,0.00
2018-10-09T01:59:07.357Z,0.00
2018-10-09T02:00:07.323Z,0.00
2018-10-09T02:01:07.312Z,0.00
2018-10-09T02:02:07.321Z,0.00
2018-10-09T02:03:07.328Z,0.00
2018-10-09T02:04:07.284Z,0.00
2018-10-09T02:05:07.270Z,0.00
2018-10-09T02:06:07.260Z,0.00
2018-10-09T02:07:07.249Z,0.00
2018-10-09T02:08:07.253Z,0.00
2018-10-09T02:09:07.254Z,0.00
2018-10-09T02:10:07.218Z,0.00
2018-10-09T02:11:07.208Z,0.00
2018-10-09T02:12:07.197Z,0.00
2018-10-09T02:13:07.186Z,0.00
2018-10-09T02:14:07.189Z,0.00
2018-10-09T02:15:07.172Z,0.00
2018-10-09T02:16:07.167Z,0.00
2018-10-09T02:17:07.145Z,0.00
2018-10-09T02:18:07.133Z,0.00
2018-10-09T02:19:07.136Z,0.00
2018-10-09T02:20:07.113Z,0.00
2018-10-09T02:21:07.101Z,0.00
2018-10-09T02:22:07.101Z,0.00
2018-10-09T02:23:07.093Z,0.00
2018-10-09T02:24:07.096Z,0.00
2018-10-09T02:25:07.076Z,0.00
2018-10-09T02:26:07.047Z,0.00
2018-10-09T02:27:07.038Z,0.00
2018-10-09T02:28:07.026Z,0.00
2018-10-09T02:29:07.030Z,0.00
2018-10-09T02:30:07.006Z,0.00
2018-10-09T02:31:07.012Z,0.00
2018-10-09T02:32:07.000Z,0.00
2018-10-09T02:33:06.986Z,0.00
2018-10-09T02:34:06.980Z,0.00
2018-10-09T02:35:06.957Z,0.00
2018-10-09T02:36:06.942Z,0.00
2018-10-09T02:37:06.931Z,0.00
2018-10-09T02:38:06.920Z,0.00
2018-10-09T02:39:06.932Z,0.00
2018-10-09T02:40:06.911Z,0.00
2018-10-09T02:41:06.888Z,0.00
2018-10-09T02:42:06.877Z,0.00
2018-10-09T02:43:06.865Z,0.00
2018-10-09T02:44:06.869Z,0.00
2018-10-09T02:45:06.845Z,0.00
2018-10-09T02:46:06.842Z,0.00
2018-10-09T02:47:06.834Z,0.00
2018-10-09T02:48:06.814Z,0.00
2018-10-09T02:49:06.815Z,0.00
2018-10-09T02:50:06.796Z,0.00
2018-10-09T02:51:06.782Z,0.00
2018-10-09T02:52:06.788Z,0.00
2018-10-09T02:53:06.759Z,0.00
2018-10-09T02:54:06.764Z,0.00
2018-10-09T02:55:06.738Z,0.00
2018-10-09T02:56:06.726Z,0.00
2018-10-09T02:57:06.715Z,0.00
2018-10-09T02:58:06.715Z,0.00
2018-10-09T02:59:06.719Z,0.00
2018-10-09T03:00:06.684Z,0.00
2018-10-09T03:01:06.673Z,0.00
2018-10-09T03:02:06.661Z,0.00
2018-10-09T03:03:06.651Z,0.00
2018-10-09T03:04:06.654Z,0.00
2018-10-09T03:05:06.658Z,0.00
2018-10-09T03:06:06.620Z,0.00
2018-10-09T03:07:06.610Z,0.00
2018-10-09T03:08:06.599Z,0.00
2018-10-09T03:09:06.602Z,0.00
2018-10-09T03:10:06.577Z,0.00
2018-10-09T03:11:06.591Z,0.00
2018-10-09T03:12:06.556Z,0.00
2018-10-09T03:13:06.546Z,0.00
2018-10-09T03:14:06.549Z,0.00
2018-10-09T03:15:06.524Z,0.00
2018-10-09T03:16:06.514Z,0.00
2018-10-09T03:17:06.520Z,0.00
2018-10-09T03:18:06.491Z,0.00
2018-10-09T03:19:06.496Z,0.00
2018-10-09T03:20:06.470Z,0.00
2018-10-09T03:21:06.459Z,0.00
2018-10-09T03:22:06.448Z,0.00
2018-10-09T03:23:06.454Z,0.00
2018-10-09T03:24:06.462Z,0.00
2018-10-09T03:25:06.418Z,0.00
2018-10-09T03:26:06.405Z,0.00
2018-10-09T03:27:06.396Z,0.00
2018-10-09T03:28:06.385Z,0.00
2018-10-09T03:29:06.388Z,0.00
2018-10-09T03:30:06.376Z,0.00
2018-10-09T03:31:06.355Z,0.00
2018-10-09T03:32:06.342Z,0.00
2018-10-09T03:33:06.331Z,0.00
2018-10-09T03:34:06.334Z,0.00
2018-10-09T03:35:06.309Z,0.00
2018-10-09T03:36:06.314Z,0.00
2018-10-09T03:37:06.313Z,0.00
2018-10-09T03:38:06.277Z,0.00
2018-10-09T03:39:06.281Z,0.00
2018-10-09T03:40:06.292Z,0.00
2018-10-09T03:41:06.246Z,0.00
2018-10-09T03:42:06.240Z,0.00
2018-10-09T03:43:06.252Z,0.00
2018-10-09T03:44:06.232Z,0.00
2018-10-09T03:45:06.204Z,0.00
2018-10-09T03:46:06.194Z,0.00
2018-10-09T03:47:06.202Z,0.00
2018-10-09T03:48:06.171Z,0.00
2018-10-09T03:49:06.201Z,0.00
2018-10-09T03:50:06.149Z,0.00
2018-10-09T03:51:06.141Z,0.00
2018-10-09T03:52:06.129Z,0.00
2018-10-09T03:53:06.121Z,0.00
2018-10-09T03:54:06.122Z,0.00
2018-10-09T03:55:06.115Z,0.00
2018-10-09T03:56:06.101Z,0.00
2018-10-09T03:57:06.077Z,0.00
2018-10-09T03:58:06.066Z,0.00
2018-10-09T03:59:06.069Z,0.00
2018-10-09T04:00:06.044Z,0.00
2018-10-09T04:01:06.034Z,0.00
2018-10-09T04:02:06.039Z,0.00
2018-10-09T04:03:06.013Z,0.00
2018-10-09T04:04:06.013Z,0.00
2018-10-09T04:05:05.991Z,0.00
2018-10-09T04:06:05.979Z,0.00
2018-10-09T04:07:05.969Z,0.00
2018-10-09T04:08:05.983Z,0.00
2018-10-09T04:09:05.992Z,0.00
2018-10-09T04:10:05.937Z,0.00
2018-10-09T04:11:05.927Z,0.00
2018-10-09T04:12:05.921Z,0.00
2018-10-09T04:13:05.905Z,0.00
2018-10-09T04:14:05.931Z,0.00
2018-10-09T04:15:05.884Z,0.00
2018-10-09T04:16:05.872Z,0.00
2018-10-09T04:17:05.862Z,0.00
2018-10-09T04:18:05.854Z,0.00
2018-10-09T04:19:05.856Z,0.00
2018-10-09T04:20:05.843Z,0.00
2018-10-09T04:21:05.821Z,0.00
2018-10-09T04:22:05.808Z,0.00
2018-10-09T04:23:05.796Z,0.00
2018-10-09T04:24:05.814Z,0.00
2018-10-09T04:25:05.779Z,0.00
2018-10-09T04:26:05.783Z,0.00
2018-10-09T04:27:05.756Z,0.00
2018-10-09T04:28:05.750Z,0.00
2018-10-09T04:29:05.738Z,0.00
2018-10-09T04:30:05.740Z,0.00
2018-10-09T04:31:05.717Z,0.00
2018-10-09T04:32:05.719Z,0.00
2018-10-09T04:33:05.693Z,0.00
2018-10-09T04:34:05.681Z,0.00
2018-10-09T04:35:05.684Z,0.00
2018-10-09T04:36:05.659Z,0.00
2018-10-09T04:37:05.650Z,0.00
2018-10-09T04:38:05.657Z,0.00
2018-10-09T04:39:05.626Z,0.00
2018-10-09T04:40:05.629Z,0.00
2018-10-09T04:41:05.604Z,0.00
2018-10-09T04:42:05.596Z,0.00
2018-10-09T04:43:05.584Z,0.00
2018-10-09T04:44:05.592Z,0.00
2018-10-09T04:45:05.586Z,0.00
2018-10-09T04:46:05.552Z,0.00
2018-10-09T04:47:05.541Z,0.00
2018-10-09T04:48:05.540Z,0.00
2018-10-09T04:49:05.521Z,0.00
2018-10-09T04:50:05.543Z,0.00
2018-10-09T04:51:05.498Z,0.00
2018-10-09T04:52:05.488Z,0.00
2018-10-09T04:53:05.523Z,0.00
2018-10-09T04:54:05.467Z,0.00
2018-10-09T04:55:05.473Z,0.00
2018-10-09T04:56:05.463Z,0.00
2018-10-09T04:57:05.453Z,0.00
2018-10-09T04:58:05.424Z,0.00
2018-10-09T04:59:05.413Z,0.00
2018-10-09T05:00:05.418Z,0.00
2018-10-09T05:01:05.393Z,0.00
2018-10-09T05:02:05.381Z,0.00
2018-10-09T05:03:05.386Z,0.00
2018-10-09T05:04:05.378Z,0.00
2018-10-09T05:05:05.408Z,0.00
2018-10-09T05:06:05.342Z,4.00
2018-10-09T05:07:05.337Z,4.00
2018-10-09T05:08:05.318Z,0.00
2018-10-09T05:09:05.308Z,4.00
2018-10-09T05:10:05.341Z,0.00
2018-10-09T05:11:05.287Z,4.00
2018-10-09T05:12:05.276Z,4.00
2018-10-09T05:13:05.264Z,4.00
2018-10-09T05:14:05.255Z,8.00
2018-10-09T05:15:05.280Z,8.00
2018-10-09T05:16:05.233Z,8.00
2018-10-09T05:17:05.225Z,12.00
2018-10-09T05:18:05.212Z,16.00
2018-10-09T05:19:05.202Z,20.00
2018-10-09T05:20:05.204Z,24.00
2018-10-09T05:21:05.198Z,28.00
2018-10-09T05:22:05.171Z,32.00
2018-10-09T05:23:05.164Z,40.00
2018-10-09T05:24:05.149Z,48.00
2018-10-09T05:25:05.151Z,56.00
2018-10-09T05:26:05.127Z,64.00
2018-10-09T05:27:05.169Z,72.00
2018-10-09T05:28:05.106Z,88.00
2018-10-09T05:29:05.103Z,104.00
2018-10-09T05:30:05.100Z,120.00
2018-10-09T05:31:05.143Z,136.00
2018-10-09T05:32:05.064Z,156.00
2018-10-09T05:33:05.066Z,176.00
2018-10-09T05:34:05.043Z,200.00
2018-10-09T05:35:05.046Z,224.00
2018-10-09T05:36:05.023Z,248.00
2018-10-09T05:37:05.010Z,276.00
2018-10-09T05:38:05.000Z,304.00
2018-10-09T05:39:05.011Z,336.00
2018-10-09T05:40:04.991Z,376.00
2018-10-09T05:41:04.968Z,412.00
2018-10-09T05:42:04.964Z,460.00
2018-10-09T05:43:04.964Z,504.00
2018-10-09T05:44:04.961Z,556.00
2018-10-09T05:45:04.950Z,608.00
2018-10-09T05:46:04.928Z,656.00
2018-10-09T05:47:04.929Z,708.00
2018-10-09T05:48:04.897Z,748.00
2018-10-09T05:49:04.886Z,796.00
2018-10-09T05:50:04.886Z,832.00
2018-10-09T05:51:04.860Z,868.00
2018-10-09T05:52:04.851Z,904.00
2018-10-09T05:53:04.853Z,948.00
2018-10-09T05:54:04.829Z,1000.00
2018-10-09T05:55:04.843Z,1044.00
2018-10-09T05:56:04.808Z,1100.00
2018-10-09T05:57:04.804Z,1160.00
2018-10-09T05:58:04.861Z,1236.00
2018-10-09T05:59:04.784Z,1308.00
2018-10-09T06:00:04.770Z,1388.00
2018-10-09T06:01:04.785Z,1460.00
2018-10-09T06:02:04.752Z,1544.00
2018-10-09T06:03:04.732Z,1620.00
2018-10-09T06:04:04.741Z,1700.00
2018-10-09T06:05:04.712Z,1768.00
2018-10-09T06:06:04.814Z,1824.00
2018-10-09T06:07:04.702Z,1880.00
2018-10-09T06:08:04.693Z,1956.00
2018-10-09T06:09:04.669Z,2064.00
2018-10-09T06:10:04.658Z,2200.00
2018-10-09T06:11:04.664Z,2340.00
2018-10-09T06:12:04.638Z,2444.00
2018-10-09T06:13:04.648Z,2532.00
2018-10-09T06:14:04.617Z,2624.00
2018-10-09T06:15:04.607Z,2704.00
2018-10-09T06:16:04.653Z,2788.00
2018-10-09T06:17:04.585Z,2880.00
2018-10-09T06:18:04.574Z,2976.00
2018-10-09T06:19:04.575Z,3080.00
2018-10-09T06:20:04.572Z,3172.00
2018-10-09T06:21:04.556Z,3264.00
2018-10-09T06:22:05.140Z,3348.00
2018-10-09T06:23:04.519Z,3424.00
2018-10-09T06:24:04.510Z,3516.00
2018-10-09T06:25:04.498Z,3596.00
2018-10-09T06:26:04.514Z,3688.00
2018-10-09T06:27:04.481Z,3780.00
2018-10-09T06:28:04.538Z,3856.00
2018-10-09T06:29:04.456Z,3936.00
2018-10-09T06:30:04.444Z,4008.00
2018-10-09T06:31:04.447Z,4080.00
2018-10-09T06:32:04.428Z,4144.00
2018-10-09T06:33:04.426Z,4192.00
2018-10-09T06:34:04.475Z,4200.00
2018-10-09T06:35:04.394Z,4184.00
2018-10-09T06:36:04.393Z,4152.00
2018-10-09T06:37:04.432Z,4124.00
2018-10-09T06:38:04.361Z,4124.00
2018-10-09T06:39:04.373Z,4164.00
2018-10-09T06:40:04.337Z,4196.00
2018-10-09T06:41:04.343Z,4236.00
2018-10-09T06:42:04.316Z,4316.00
2018-10-09T06:43:04.305Z,4424.00
2018-10-09T06:44:04.295Z,4532.00
2018-10-09T06:45:04.306Z,4648.00
2018-10-09T06:46:04.289Z,4772.00
2018-10-09T06:47:04.263Z,4892.00
2018-10-09T06:48:04.252Z,4920.00
2018-10-09T06:49:04.241Z,4932.00
2018-10-09T06:50:04.231Z,4936.00
2018-10-09T06:51:04.257Z,4972.00
2018-10-09T06:52:04.220Z,4960.00
2018-10-09T06:53:04.198Z,4972.00
2018-10-09T06:54:04.345Z,4976.00
2018-10-09T06:55:04.177Z,4960.00
2018-10-09T06:56:04.179Z,4972.00
2018-10-09T06:57:04.168Z,4964.00
2018-10-09T06:58:04.146Z,5076.00
2018-10-09T06:59:04.133Z,5252.00
2018-10-09T07:00:04.137Z,5380.00
2018-10-09T07:01:04.126Z,5452.00
2018-10-09T07:02:04.104Z,5552.00
2018-10-09T07:03:04.106Z,5712.00
2018-10-09T07:04:04.083Z,5808.00
2018-10-09T07:05:04.070Z,5876.00
2018-10-09T07:06:04.073Z,5884.00
2018-10-09T07:07:04.048Z,5844.00
2018-10-09T07:08:04.036Z,5904.00
2018-10-09T07:09:04.039Z,5956.00
2018-10-09T07:10:04.022Z,5784.00
2018-10-09T07:11:04.094Z,6084.00
2018-10-09T07:12:04.051Z,6156.00
2018-10-09T07:13:04.016Z,6208.00
2018-10-09T07:14:03.975Z,6308.00
2018-10-09T07:15:03.984Z,6372.00
2018-10-09T07:16:03.964Z,6468.00
2018-10-09T07:17:03.959Z,6612.00
2018-10-09T07:18:03.948Z,6716.00
2018-10-09T07:19:03.924Z,6808.00
2018-10-09T07:20:03.909Z,6976.00
2018-10-09T07:21:03.914Z,7116.00
2018-10-09T07:22:03.887Z,7284.00
2018-10-09T07:23:03.888Z,7440.00
2018-10-09T07:24:03.875Z,7692.00
2018-10-09T07:25:03.871Z,7996.00
2018-10-09T07:26:03.859Z,8244.00
2018-10-09T07:27:03.834Z,8500.00
2018-10-09T07:28:03.825Z,8740.00
2018-10-09T07:29:03.812Z,8968.00
2018-10-09T07:30:03.803Z,9272.00
2018-10-09T07:31:03.814Z,9580.00
2018-10-09T07:32:03.787Z,9892.00
2018-10-09T07:33:03.811Z,10160.00
2018-10-09T07:34:03.787Z,10388.00
2018-10-09T07:35:03.804Z,10596.00
2018-10-09T07:36:03.780Z,10768.00
2018-10-09T07:37:03.752Z,10832.00
2018-10-09T07:38:03.723Z,10984.00
2018-10-09T07:39:03.708Z,11168.00
2018-10-09T07:40:03.715Z,11268.00
2018-10-09T07:41:03.730Z,11308.00
2018-10-09T07:42:03.710Z,11316.00
2018-10-09T07:43:03.680Z,11336.00
2018-10-09T07:44:03.735Z,11348.00
2018-10-09T07:45:03.655Z,11304.00
2018-10-09T07:46:03.653Z,11284.00
2018-10-09T07:47:03.635Z,11324.00
2018-10-09T07:48:03.619Z,11368.00
2018-10-09T07:49:03.621Z,11328.00
2018-10-09T07:50:03.616Z,11140.00
2018-10-09T07:51:03.610Z,11060.00
2018-10-09T07:52:03.574Z,10864.00
2018-10-09T07:53:03.563Z,11264.00
2018-10-09T07:54:03.547Z,11660.00
2018-10-09T07:55:03.537Z,12128.00
2018-10-09T07:56:03.551Z,12460.00
2018-10-09T07:57:03.559Z,12716.00
2018-10-09T07:58:03.517Z,12960.00
2018-10-09T07:59:03.489Z,13288.00
2018-10-09T08:00:03.489Z,13792.00
2018-10-09T08:01:03.480Z,14108.00
2018-10-09T08:02:03.456Z,14312.00
2018-10-09T08:03:03.454Z,14808.00
2018-10-09T08:04:03.447Z,14924.00
2018-10-09T08:05:03.426Z,15168.00
2018-10-09T08:06:03.427Z,16000.00
2018-10-09T08:07:03.404Z,16512.00
2018-10-09T08:08:03.401Z,17472.00
2018-10-09T08:09:03.393Z,18048.00
2018-10-09T08:10:03.379Z,17472.00
2018-10-09T08:11:03.385Z,16704.00
2018-10-09T08:12:03.364Z,16800.00
2018-10-09T08:13:03.351Z,17056.00
2018-10-09T08:14:03.348Z,17440.00
2018-10-09T08:15:03.330Z,17280.00
2018-10-09T08:16:03.356Z,17568.00
2018-10-09T08:17:03.342Z,16896.00
2018-10-09T08:18:03.295Z,17344.00
2018-10-09T08:19:03.280Z,17120.00
2018-10-09T08:20:03.285Z,16992.00
2018-10-09T08:21:03.271Z,16832.00
2018-10-09T08:22:03.258Z,17920.00
2018-10-09T08:23:03.236Z,18912.00
2018-10-09T08:24:03.221Z,20224.00
2018-10-09T08:25:03.221Z,20192.00
2018-10-09T08:26:03.198Z,19712.00
2018-10-09T08:27:03.210Z,19040.00
2018-10-09T08:28:03.215Z,19584.00
2018-10-09T08:29:03.196Z,18240.00
2018-10-09T08:30:03.191Z,18816.00
2018-10-09T08:31:03.190Z,17248.00
2018-10-09T08:32:03.252Z,16736.00
2018-10-09T08:33:03.133Z,16768.00
2018-10-09T08:34:03.120Z,18400.00
2018-10-09T08:35:03.114Z,16160.00
2018-10-09T08:36:03.099Z,15904.00
2018-10-09T08:37:03.100Z,15584.00
2018-10-09T08:38:03.076Z,14572.00
2018-10-09T08:39:03.077Z,14600.00
2018-10-09T08:40:03.113Z,15488.00
2018-10-09T08:41:03.046Z,18592.00
2018-10-09T08:42:03.056Z,17760.00
2018-10-09T08:43:03.014Z,16672.00
2018-10-09T08:44:03.011Z,18816.00
2018-10-09T08:45:02.995Z,17792.00
2018-10-09T08:46:02.995Z,17824.00
2018-10-09T08:47:02.998Z,17536.00
2018-10-09T08:48:02.982Z,18752.00
2018-10-09T08:49:02.968Z,18880.00
2018-10-09T08:50:02.970Z,16448.00
2018-10-09T08:51:02.974Z,14796.00
2018-10-09T08:52:03.008Z,16320.00
2018-10-09T08:53:02.907Z,17376.00
2018-10-09T08:54:02.901Z,16576.00
2018-10-09T08:55:02.892Z,16896.00
2018-10-09T08:56:02.881Z,17440.00
2018-10-09T08:57:02.891Z,17024.00
2018-10-09T08:58:02.881Z,16736.00
2018-10-09T08:59:02.922Z,16256.00
2018-10-09T09:00:02.834Z,15776.00
2018-10-09T09:01:02.827Z,16288.00
2018-10-09T09:02:02.858Z,17440.00
2018-10-09T09:03:02.806Z,18208.00
2018-10-09T09:04:02.808Z,18880.00
2018-10-09T09:05:02.785Z,18784.00
2018-10-09T09:06:02.798Z,19968.00
2018-10-09T09:07:02.781Z,21984.00
2018-10-09T09:08:02.752Z,20704.00
2018-10-09T09:09:02.738Z,20864.00
2018-10-09T09:10:02.749Z,20928.00
2018-10-09T09:11:02.730Z,22496.00
2018-10-09T09:12:02.730Z,21376.00
2018-10-09T09:13:02.691Z,21728.00
2018-10-09T09:14:02.767Z,22144.00
2018-10-09T09:15:02.674Z,26304.00
2018-10-09T09:16:02.668Z,25728.00
2018-10-09T09:17:02.673Z,26368.00
2018-10-09T09:18:02.668Z,26144.00
2018-10-09T09:19:02.649Z,26144.00
2018-10-09T09:20:02.634Z,22688.00
2018-10-09T09:21:02.690Z,18944.00
2018-10-09T09:22:02.621Z,21472.00
2018-10-09T09:23:02.599Z,24864.00
2018-10-09T09:24:02.586Z,25344.00
2018-10-09T09:25:02.582Z,24384.00
2018-10-09T09:26:02.606Z,25920.00
2018-10-09T09:27:02.744Z,26496.00
2018-10-09T09:28:02.554Z,28128.00
2018-10-09T09:29:02.536Z,27392.00
2018-10-09T09:30:02.527Z,27040.00
2018-10-09T09:31:02.508Z,29312.00
2018-10-09T09:32:02.529Z,30720.00
2018-10-09T09:33:02.517Z,34592.00
2018-10-09T09:34:02.480Z,36512.00
2018-10-09T09:35:02.473Z,35744.00
2018-10-09T09:36:02.450Z,35072.00
2018-10-09T09:37:02.487Z,32960.00
2018-10-09T09:38:02.431Z,31808.00
2018-10-09T09:39:02.470Z,31424.00
2018-10-09T09:40:02.409Z,30560.00
2018-10-09T09:41:02.413Z,29856.00
2018-10-09T09:42:02.433Z,28160.00
2018-10-09T09:43:02.421Z,27712.00
2018-10-09T09:44:02.358Z,28352.00
2018-10-09T09:45:02.362Z,29184.00
2018-10-09T09:46:02.395Z,27072.00
2018-10-09T09:47:02.361Z,21728.00
2018-10-09T09:48:02.327Z,23648.00
2018-10-09T09:49:02.313Z,31840.00
2018-10-09T09:50:02.299Z,34944.00
2018-10-09T09:51:02.284Z,30528.00
2018-10-09T09:52:02.362Z,32576.00
2018-10-09T09:53:02.263Z,35008.00
2018-10-09T09:54:02.251Z,32064.00
2018-10-09T09:55:02.239Z,33888.00
2018-10-09T09:56:02.258Z,32352.00
2018-10-09T09:57:02.255Z,31744.00
2018-10-09T09:58:02.435Z,35616.00
2018-10-09T09:59:02.307Z,38304.00
2018-10-09T10:00:02.193Z,36384.00
2018-10-09T10:01:02.188Z,38592.00
2018-10-09T10:02:02.173Z,34944.00
2018-10-09T10:03:02.168Z,29024.00
2018-10-09T10:04:02.151Z,24672.00
2018-10-09T10:05:02.139Z,20960.00
2018-10-09T10:06:02.139Z,19936.00
2018-10-09T10:07:02.130Z,22752.00
2018-10-09T10:08:02.136Z,26848.00
2018-10-09T10:09:02.097Z,28192.00
2018-10-09T10:10:02.098Z,30048.00
2018-10-09T10:11:02.085Z,30912.00
2018-10-09T10:12:02.069Z,30528.00
2018-10-09T10:13:02.070Z,31040.00
2018-10-09T10:14:02.062Z,30304.00
2018-10-09T10:15:02.044Z,26208.00
2018-10-09T10:16:02.016Z,22176.00
2018-10-09T10:17:02.015Z,22496.00
2018-10-09T10:18:02.018Z,25088.00
2018-10-09T10:19:01.994Z,24288.00
2018-10-09T10:20:01.988Z,21280.00
2018-10-09T10:21:01.971Z,22624.00
2018-10-09T10:22:10.002Z,22816.00
2018-10-09T10:23:01.955Z,21280.00
2018-10-09T10:24:01.931Z,32224.00
2018-10-09T10:25:01.921Z,39744.00
2018-10-09T10:26:01.919Z,40544.00
2018-10-09T10:27:01.900Z,44448.00
2018-10-09T10:28:01.920Z,44960.00
2018-10-09T10:29:01.901Z,44448.00
2018-10-09T10:30:01.869Z,38432.00
2018-10-09T10:31:01.861Z,42368.00
2018-10-09T10:32:01.847Z,41152.00
2018-10-09T10:33:01.858Z,39168.00
2018-10-09T10:34:01.840Z,32832.00
2018-10-09T10:35:01.843Z,22432.00
2018-10-09T10:36:01.809Z,16288.00
2018-10-09T10:37:01.797Z,18176.00
2018-10-09T10:38:01.810Z,30048.00
2018-10-09T10:39:01.772Z,42432.00
2018-10-09T10:40:01.765Z,41472.00
2018-10-09T10:41:01.754Z,42944.00
2018-10-09T10:42:01.773Z,43168.00
2018-10-09T10:43:01.751Z,32416.00
2018-10-09T10:44:01.724Z,17792.00
2018-10-09T10:45:01.732Z,14908.00
2018-10-09T10:46:01.712Z,20608.00
2018-10-09T10:47:01.693Z,34304.00
2018-10-09T10:48:01.694Z,33504.00
2018-10-09T10:49:01.753Z,33888.00
2018-10-09T10:50:01.682Z,25216.00
2018-10-09T10:51:01.663Z,30144.00
2018-10-09T10:52:01.637Z,45888.00
2018-10-09T10:53:01.643Z,46176.00
2018-10-09T10:54:01.618Z,46528.00
2018-10-09T10:55:01.738Z,44352.00
2018-10-09T10:56:01.593Z,43136.00
2018-10-09T10:57:01.582Z,25248.00
2018-10-09T10:58:01.600Z,13520.00
2018-10-09T10:59:01.561Z,23584.00
2018-10-09T11:00:01.558Z,16256.00
2018-10-09T11:01:01.550Z,14828.00
2018-10-09T11:02:01.531Z,9816.00
2018-10-09T11:03:01.562Z,9468.00
2018-10-09T11:04:01.525Z,9456.00
2018-10-09T11:05:01.513Z,9268.00
2018-10-09T11:06:01.510Z,11064.00
2018-10-09T11:07:01.485Z,10720.00
2018-10-09T11:08:01.588Z,8936.00
2018-10-09T11:09:01.483Z,8960.00
2018-10-09T11:10:01.457Z,10328.00
2018-10-09T11:11:01.447Z,9244.00
2018-10-09T11:12:01.431Z,8712.00
2018-10-09T11:13:01.409Z,9184.00
2018-10-09T11:14:01.417Z,17204.00
2018-10-09T11:15:01.406Z,32448.00
2018-10-09T11:16:01.384Z,25856.00
2018-10-09T11:17:01.376Z,12792.00
2018-10-09T11:18:01.365Z,9348.00
2018-10-09T11:19:01.373Z,8676.00
2018-10-09T11:20:01.351Z,8408.00
